Time;durP1;ratioP1;P1;durP2;ratioP2;P2;SDS_P1;SDS_P2;PMS_P1;PMS_P2;Temp;Humidity;BMP_temperature;BMP_pressure;BME280_temperature;BME280_humidity;BME280_pressure;Samples;Min_cycle;Max_cycle;Signal;HPM_P1;HPM_P2
2021/06/14 00:00:22;;;;;;;4.47;4.05;;;;;;;;;;4368932;32;20794;-76
2021/06/14 00:02:50;;;;;;;4.60;3.90;;;;;;;;;;4368583;32;20063;-76
2021/06/14 00:05:29;;;;;;;3.78;3.47;;;;;;;;;;4356057;32;20062;-76
2021/06/14 00:07:56;;;;;;;4.00;3.58;;;;;;;;;;4367544;32;20097;-76
2021/06/14 00:10:25;;;;;;;3.60;3.30;;;;;;;;;;4368877;32;20355;-76
2021/06/14 00:12:51;;;;;;;3.67;3.35;;;;;;;;;;4359491;32;20027;-77
2021/06/14 00:15:17;;;;;;;4.07;3.17;;;;;;;;;;4367279;32;20027;-77
2021/06/14 00:17:43;;;;;;;3.40;3.10;;;;;;;;;;4368130;32;20089;-76
2021/06/14 00:20:11;;;;;;;2.75;2.55;;;;;;;;;;4368497;32;20069;-76
2021/06/14 00:22:38;;;;;;;4.68;2.97;;;;;;;;;;4368085;32;20361;-77
2021/06/14 00:25:05;;;;;;;3.47;3.17;;;;;;;;;;4368569;32;20069;-77
2021/06/14 00:27:31;;;;;;;4.12;3.00;;;;;;;;;;4365625;32;20415;-77
2021/06/14 00:29:57;;;;;;;4.20;2.80;;;;;;;;;;4363063;32;20325;-76
2021/06/14 00:32:23;;;;;;;2.90;2.70;;;;;;;;;;4365676;32;20062;-76
2021/06/14 00:34:50;;;;;;;3.80;2.55;;;;;;;;;;4369556;32;20028;-77
2021/06/14 00:37:16;;;;;;;3.65;2.80;;;;;;;;;;4369521;32;20089;-76
2021/06/14 00:39:42;;;;;;;3.03;2.78;;;;;;;;;;4368167;32;20502;-76
2021/06/14 00:42:08;;;;;;;5.90;2.80;;;;;;;;;;4362744;32;20031;-76
2021/06/14 00:44:35;;;;;;;4.20;2.67;;;;;;;;;;4369390;32;20031;-76
2021/06/14 00:47:01;;;;;;;2.87;2.58;;;;;;;;;;4369757;32;20039;-76
2021/06/14 00:49:27;;;;;;;4.35;2.53;;;;;;;;;;4357266;32;20067;-76
2021/06/14 00:51:53;;;;;;;3.20;2.90;;;;;;;;;;4368458;32;20050;-76
2021/06/14 00:54:19;;;;;;;2.67;2.30;;;;;;;;;;4369817;32;20662;-77
2021/06/14 00:56:46;;;;;;;2.50;2.30;;;;;;;;;;4370714;32;20046;-76
2021/06/14 00:59:14;;;;;;;2.72;2.17;;;;;;;;;;4370722;32;20517;-76
2021/06/14 01:01:40;;;;;;;3.45;2.47;;;;;;;;;;4371839;32;20031;-76
2021/06/14 01:04:06;;;;;;;4.57;2.80;;;;;;;;;;4364293;32;20039;-76
2021/06/14 01:06:32;;;;;;;2.62;2.40;;;;;;;;;;4372327;32;20043;-76
2021/06/14 01:08:59;;;;;;;2.83;2.53;;;;;;;;;;4370367;32;20084;-78
2021/06/14 01:11:28;;;;;;;2.65;2.45;;;;;;;;;;4370040;32;20088;-76
2021/06/14 01:14:03;;;;;;;2.70;2.50;;;;;;;;;;4370953;32;20050;-77
2021/06/14 01:16:56;;;;;;;2.70;2.50;;;;;;;;;;4369561;32;20043;-76
2021/06/14 01:19:31;;;;;;;2.60;2.40;;;;;;;;;;4357966;32;20031;-76
2021/06/14 01:22:16;;;;;;;2.83;2.60;;;;;;;;;;4371733;32;20027;-76
2021/06/14 01:24:45;;;;;;;3.40;2.50;;;;;;;;;;4370474;32;20039;-77
2021/06/14 01:27:11;;;;;;;3.78;2.53;;;;;;;;;;4367364;32;20027;-76
2021/06/14 01:29:38;;;;;;;3.47;3.00;;;;;;;;;;4368680;32;20027;-76
2021/06/14 01:32:05;;;;;;;3.15;2.80;;;;;;;;;;4354249;32;20098;-77
2021/06/14 01:34:33;;;;;;;3.25;2.95;;;;;;;;;;4368215;32;20459;-76
2021/06/14 01:37:00;;;;;;;4.03;3.10;;;;;;;;;;4376561;32;20061;-76
2021/06/14 01:39:28;;;;;;;4.85;3.17;;;;;;;;;;4368138;32;20056;-76
2021/06/14 01:41:55;;;;;;;4.45;2.87;;;;;;;;;;4368509;32;20088;-76
2021/06/14 01:44:22;;;;;;;3.75;2.95;;;;;;;;;;4367914;32;20047;-76
2021/06/14 01:46:49;;;;;;;3.00;2.80;;;;;;;;;;4368760;32;20063;-76
2021/06/14 01:49:15;;;;;;;3.40;3.10;;;;;;;;;;4365738;32;20385;-76
2021/06/14 01:51:42;;;;;;;3.60;3.30;;;;;;;;;;4373123;32;20110;-76
2021/06/14 01:54:08;;;;;;;3.65;3.30;;;;;;;;;;4367950;32;20101;-76
2021/06/14 01:56:36;;;;;;;4.25;3.53;;;;;;;;;;4367577;32;20031;-76
2021/06/14 01:59:04;;;;;;;3.65;3.33;;;;;;;;;;4366588;32;20042;-76
2021/06/14 02:01:32;;;;;;;3.60;3.30;;;;;;;;;;4369282;32;20039;-76
2021/06/14 02:03:59;;;;;;;4.45;3.40;;;;;;;;;;4366393;32;20106;-76
2021/06/14 02:06:27;;;;;;;4.05;3.67;;;;;;;;;;4367685;32;20182;-76
2021/06/14 02:08:54;;;;;;;4.82;3.80;;;;;;;;;;4368904;32;20108;-75
2021/06/14 02:11:20;;;;;;;4.72;3.50;;;;;;;;;;4367443;32;20035;-77
2021/06/14 02:13:47;;;;;;;5.78;3.67;;;;;;;;;;4367721;32;20066;-76
2021/06/14 02:16:13;;;;;;;4.80;4.12;;;;;;;;;;4367468;32;20031;-76
2021/06/14 02:18:40;;;;;;;4.40;4.00;;;;;;;;;;4367792;32;20057;-76
2021/06/14 02:21:06;;;;;;;4.30;3.85;;;;;;;;;;4366937;32;20359;-76
2021/06/14 02:23:32;;;;;;;4.37;3.97;;;;;;;;;;4368608;32;20096;-76
2021/06/14 02:25:58;;;;;;;4.35;3.95;;;;;;;;;;4368614;32;20137;-76
2021/06/14 02:28:25;;;;;;;6.03;4.28;;;;;;;;;;4367329;32;20038;-76
2021/06/14 02:30:51;;;;;;;4.00;3.60;;;;;;;;;;4368093;32;20034;-76
2021/06/14 02:33:17;;;;;;;3.35;3.03;;;;;;;;;;4365607;32;20459;-76
2021/06/14 02:35:43;;;;;;;4.20;3.80;;;;;;;;;;4368350;32;20030;-76
2021/06/14 02:38:11;;;;;;;4.65;4.15;;;;;;;;;;4366794;32;20058;-76
2021/06/14 02:40:38;;;;;;;4.28;3.90;;;;;;;;;;4366749;32;20379;-76
2021/06/14 02:43:06;;;;;;;5.05;3.75;;;;;;;;;;4366932;32;20058;-77
2021/06/14 02:45:32;;;;;;;4.45;4.05;;;;;;;;;;4365958;32;20130;-77
2021/06/14 02:47:58;;;;;;;4.45;4.05;;;;;;;;;;4367564;32;20065;-77
2021/06/14 02:50:27;;;;;;;4.70;4.30;;;;;;;;;;4367038;32;20333;-77
2021/06/14 02:52:55;;;;;;;4.32;3.92;;;;;;;;;;4368341;32;20030;-76
2021/06/14 02:55:26;;;;;;;4.93;3.85;;;;;;;;;;4368263;32;20053;-76
2021/06/14 02:57:54;;;;;;;4.62;3.85;;;;;;;;;;4366548;32;20027;-77
2021/06/14 03:00:25;;;;;;;4.50;3.90;;;;;;;;;;4354385;32;20374;-76
2021/06/14 03:02:54;;;;;;;4.45;4.05;;;;;;;;;;4364338;32;20408;-76
2021/06/14 03:05:20;;;;;;;4.68;4.15;;;;;;;;;;4362634;32;20096;-76
2021/06/14 03:07:47;;;;;;;4.82;4.18;;;;;;;;;;4364097;32;20075;-76
2021/06/14 03:10:14;;;;;;;5.12;4.65;;;;;;;;;;4363946;32;20068;-76
2021/06/14 03:12:40;;;;;;;4.82;4.43;;;;;;;;;;4363904;32;20039;-76
2021/06/14 03:15:06;;;;;;;6.12;4.78;;;;;;;;;;4350238;32;20043;-76
2021/06/14 03:17:34;;;;;;;5.07;4.57;;;;;;;;;;4364238;32;20031;-76
2021/06/14 03:20:00;;;;;;;5.37;4.20;;;;;;;;;;4349744;32;20415;-76
2021/06/14 03:22:27;;;;;;;6.95;4.68;;;;;;;;;;4365373;32;20459;-76
2021/06/14 03:24:53;;;;;;;7.97;4.10;;;;;;;;;;4363159;32;20065;-76
2021/06/14 03:27:20;;;;;;;5.35;4.85;;;;;;;;;;4363828;32;20060;-76
2021/06/14 03:29:49;;;;;;;5.03;4.62;;;;;;;;;;4365244;32;20038;-76
2021/06/14 03:32:16;;;;;;;6.05;4.97;;;;;;;;;;4363848;32;20379;-76
2021/06/14 03:34:42;;;;;;;5.60;5.10;;;;;;;;;;4363923;32;20085;-78
2021/06/14 03:37:09;;;;;;;5.10;4.70;;;;;;;;;;4363051;32;20371;-76
2021/06/14 03:39:35;;;;;;;5.40;4.87;;;;;;;;;;4365903;32;20061;-76
2021/06/14 03:42:01;;;;;;;6.32;4.45;;;;;;;;;;4365195;32;20039;-76
2021/06/14 03:44:28;;;;;;;4.30;3.90;;;;;;;;;;4364978;32;20556;-76
2021/06/14 03:46:54;;;;;;;4.47;3.90;;;;;;;;;;4364354;32;20065;-76
2021/06/14 03:49:20;;;;;;;4.22;3.92;;;;;;;;;;4350621;32;20034;-76
2021/06/14 03:51:47;;;;;;;4.32;3.83;;;;;;;;;;4363687;32;20375;-76
2021/06/14 03:54:13;;;;;;;4.00;3.70;;;;;;;;;;4351328;32;20097;-77
2021/06/14 03:56:39;;;;;;;5.70;4.20;;;;;;;;;;4365173;32;20071;-76
2021/06/14 03:59:05;;;;;;;4.12;3.72;;;;;;;;;;4363152;32;20308;-76
2021/06/14 04:01:32;;;;;;;4.25;3.85;;;;;;;;;;4349933;32;20066;-76
2021/06/14 04:04:28;;;;;;;5.87;3.80;;;;;;;;;;4363443;32;20051;-76
2021/06/14 04:06:54;;;;;;;4.22;3.83;;;;;;;;;;4351671;32;20323;-75
2021/06/14 04:09:20;;;;;;;4.22;3.70;;;;;;;;;;4364877;32;20061;-76
2021/06/14 04:11:47;;;;;;;4.50;4.03;;;;;;;;;;4362965;32;20039;-76
2021/06/14 04:14:13;;;;;;;4.80;4.40;;;;;;;;;;4364183;32;20374;-76
2021/06/14 04:16:39;;;;;;;4.50;4.10;;;;;;;;;;4365062;32;20114;-76
2021/06/14 04:19:05;;;;;;;4.32;3.92;;;;;;;;;;4364058;32;20035;-76
2021/06/14 04:21:31;;;;;;;4.85;4.37;;;;;;;;;;4365518;32;20379;-76
2021/06/14 04:23:57;;;;;;;5.12;4.60;;;;;;;;;;4367900;32;20149;-76
2021/06/14 04:26:24;;;;;;;6.75;4.80;;;;;;;;;;4365448;32;20110;-76
2021/06/14 04:28:50;;;;;;;5.75;5.15;;;;;;;;;;4368087;32;20687;-76
2021/06/14 04:31:16;;;;;;;5.87;4.78;;;;;;;;;;4367174;32;20031;-76
2021/06/14 04:33:42;;;;;;;5.07;4.57;;;;;;;;;;4365757;32;20062;-76
2021/06/14 04:36:08;;;;;;;5.22;4.72;;;;;;;;;;4365618;32;20032;-76
2021/06/14 04:38:35;;;;;;;8.10;5.10;;;;;;;;;;4353872;32;20035;-76
2021/06/14 04:41:01;;;;;;;5.90;5.30;;;;;;;;;;4367717;32;20065;-76
2021/06/14 04:43:27;;;;;;;6.90;4.70;;;;;;;;;;4365464;32;20109;-76
2021/06/14 04:45:53;;;;;;;5.50;4.93;;;;;;;;;;4367925;32;20039;-76
2021/06/14 04:48:20;;;;;;;6.53;4.80;;;;;;;;;;4366559;32;20062;-76
2021/06/14 04:50:46;;;;;;;6.87;5.03;;;;;;;;;;4366175;32;20101;-76
2021/06/14 04:53:13;;;;;;;7.70;4.87;;;;;;;;;;4367486;32;20032;-76
2021/06/14 04:55:39;;;;;;;5.40;4.90;;;;;;;;;;4367285;32;20032;-76
2021/06/14 04:58:05;;;;;;;7.62;5.12;;;;;;;;;;4365451;32;20101;-76
2021/06/14 05:00:31;;;;;;;7.65;4.80;;;;;;;;;;4366205;32;20053;-76
2021/06/14 05:02:57;;;;;;;5.87;5.00;;;;;;;;;;4366082;32;20475;-76
2021/06/14 05:05:23;;;;;;;6.78;3.75;;;;;;;;;;4365601;32;20051;-76
2021/06/14 05:07:49;;;;;;;7.35;4.12;;;;;;;;;;4366666;32;20484;-76
2021/06/14 05:10:16;;;;;;;7.30;6.20;;;;;;;;;;4366205;32;20039;-77
2021/06/14 05:12:42;;;;;;;9.82;6.47;;;;;;;;;;4361663;32;20031;-76
2021/06/14 05:15:08;;;;;;;9.75;6.68;;;;;;;;;;4365699;32;20053;-76
2021/06/14 05:17:35;;;;;;;8.27;6.90;;;;;;;;;;4365284;32;20057;-77
2021/06/14 05:20:01;;;;;;;8.13;7.00;;;;;;;;;;4366023;32;20138;-77
2021/06/14 05:22:27;;;;;;;10.25;6.28;;;;;;;;;;4366972;32;20061;-78
2021/06/14 05:24:53;;;;;;;8.35;6.68;;;;;;;;;;4364311;32;20466;-77
2021/06/14 05:27:19;;;;;;;6.78;6.05;;;;;;;;;;4365988;32;20078;-77
2021/06/14 05:29:46;;;;;;;7.55;6.10;;;;;;;;;;4365268;32;20089;-77
2021/06/14 05:32:12;;;;;;;8.20;6.15;;;;;;;;;;4355776;32;20027;-77
2021/06/14 05:34:38;;;;;;;6.65;5.95;;;;;;;;;;4351535;32;20396;-77
2021/06/14 05:37:04;;;;;;;7.70;5.80;;;;;;;;;;4361865;32;20374;-77
2021/06/14 05:39:31;;;;;;;7.72;6.60;;;;;;;;;;4365860;32;20096;-77
2021/06/14 05:41:57;;;;;;;7.90;5.93;;;;;;;;;;4365496;32;20046;-81
2021/06/14 05:44:23;;;;;;;8.88;6.72;;;;;;;;;;4366201;32;20058;-78
2021/06/14 05:46:49;;;;;;;10.98;7.40;;;;;;;;;;4360757;32;20088;-77
2021/06/14 05:49:16;;;;;;;10.50;7.32;;;;;;;;;;4362410;32;20479;-77
2021/06/14 05:51:42;;;;;;;12.45;6.68;;;;;;;;;;4363693;32;20065;-77
2021/06/14 05:54:08;;;;;;;11.38;6.55;;;;;;;;;;4363713;32;20077;-77
2021/06/14 05:56:34;;;;;;;6.55;5.95;;;;;;;;;;4364751;32;20259;-77
2021/06/14 05:59:01;;;;;;;5.80;5.20;;;;;;;;;;4361945;32;20051;-77
2021/06/14 06:01:29;;;;;;;7.20;6.10;;;;;;;;;;4349513;32;20066;-77
2021/06/14 06:03:55;;;;;;;6.80;5.43;;;;;;;;;;4342495;32;20052;-77
2021/06/14 06:06:21;;;;;;;4.65;4.20;;;;;;;;;;4363946;32;20031;-78
2021/06/14 06:08:48;;;;;;;5.93;4.95;;;;;;;;;;4365650;32;20050;-77
2021/06/14 06:11:14;;;;;;;5.40;4.90;;;;;;;;;;4366064;32;20035;-80
2021/06/14 06:13:40;;;;;;;8.00;4.57;;;;;;;;;;4366404;32;20113;-77
2021/06/14 06:16:07;;;;;;;5.32;4.75;;;;;;;;;;4366444;32;20077;-77
2021/06/14 06:18:33;;;;;;;9.90;5.65;;;;;;;;;;4364254;32;20423;-78
2021/06/14 06:20:59;;;;;;;9.50;6.10;;;;;;;;;;4366871;32;20538;-77
2021/06/14 06:23:26;;;;;;;7.97;5.50;;;;;;;;;;4364934;32;20023;-78
2021/06/14 06:25:52;;;;;;;5.57;5.00;;;;;;;;;;4365406;32;20131;-78
2021/06/14 06:28:18;;;;;;;6.68;5.28;;;;;;;;;;4340905;32;20066;-77
2021/06/14 06:30:45;;;;;;;5.78;4.45;;;;;;;;;;4365173;32;20035;-79
2021/06/14 06:33:11;;;;;;;5.22;4.60;;;;;;;;;;4363258;32;20035;-77
2021/06/14 06:35:37;;;;;;;7.78;5.00;;;;;;;;;;4364499;32;20070;-78
2021/06/14 06:38:04;;;;;;;4.35;3.95;;;;;;;;;;4365226;32;20057;-78
2021/06/14 06:40:30;;;;;;;4.53;3.92;;;;;;;;;;4364979;32;20452;-78
2021/06/14 06:42:57;;;;;;;8.90;4.75;;;;;;;;;;4363608;32;20057;-78
2021/06/14 06:45:23;;;;;;;4.97;4.40;;;;;;;;;;4350430;32;20383;-78
2021/06/14 06:47:50;;;;;;;8.10;5.30;;;;;;;;;;4366114;32;20066;-77
2021/06/14 06:50:16;;;;;;;4.25;3.85;;;;;;;;;;4363854;32;20366;-78
2021/06/14 06:52:42;;;;;;;4.07;3.72;;;;;;;;;;4364304;32;20588;-79
2021/06/14 06:55:10;;;;;;;6.68;4.07;;;;;;;;;;4364960;32;20375;-79
2021/06/14 06:57:36;;;;;;;5.70;4.12;;;;;;;;;;4364469;32;20047;-80
2021/06/14 07:00:08;;;;;;;4.03;3.37;;;;;;;;;;4349317;32;20069;-80
2021/06/14 07:02:35;;;;;;;9.57;4.40;;;;;;;;;;4365543;32;20047;-79
2021/06/14 07:05:01;;;;;;;4.62;3.92;;;;;;;;;;4364479;32;20053;-79
2021/06/14 07:07:27;;;;;;;5.68;4.78;;;;;;;;;;4365084;32;20420;-79
2021/06/14 07:09:53;;;;;;;4.68;3.70;;;;;;;;;;4364561;32;20043;-80
2021/06/14 07:12:19;;;;;;;4.78;4.28;;;;;;;;;;4364641;32;20392;-80
2021/06/14 07:14:45;;;;;;;4.70;3.95;;;;;;;;;;4363429;32;20108;-80
2021/06/14 07:17:12;;;;;;;5.32;4.03;;;;;;;;;;4364284;32;20069;-80
2021/06/14 07:19:38;;;;;;;4.68;4.28;;;;;;;;;;4350410;32;20322;-80
2021/06/14 07:22:05;;;;;;;4.50;3.83;;;;;;;;;;4363772;32;20081;-80
2021/06/14 07:24:31;;;;;;;3.92;3.42;;;;;;;;;;4362884;32;20065;-80
2021/06/14 07:26:57;;;;;;;4.28;3.87;;;;;;;;;;4364820;32;20419;-80
2021/06/14 07:29:23;;;;;;;5.37;3.90;;;;;;;;;;4364480;32;20038;-80
2021/06/14 07:31:49;;;;;;;5.00;4.18;;;;;;;;;;4363202;32;20360;-80
2021/06/14 07:34:15;;;;;;;7.45;4.15;;;;;;;;;;4364446;32;20057;-80
2021/06/14 07:36:42;;;;;;;5.70;3.50;;;;;;;;;;4363561;32;20449;-80
2021/06/14 07:39:08;;;;;;;4.47;4.07;;;;;;;;;;4364441;32;20026;-80
2021/06/14 07:41:34;;;;;;;4.35;3.87;;;;;;;;;;4364381;32;20435;-79
2021/06/14 07:44:00;;;;;;;5.18;3.80;;;;;;;;;;4363425;32;20093;-80
2021/06/14 07:46:26;;;;;;;4.45;3.55;;;;;;;;;;4364466;32;20558;-80
2021/06/14 07:48:52;;;;;;;6.00;3.90;;;;;;;;;;4364018;32;20129;-80
2021/06/14 07:51:20;;;;;;;4.20;3.72;;;;;;;;;;4364945;32;20275;-80
2021/06/14 07:53:50;;;;;;;5.43;3.95;;;;;;;;;;4364153;32;20050;-79
2021/06/14 07:56:16;;;;;;;5.72;4.30;;;;;;;;;;4363771;32;20458;-79
2021/06/14 07:58:42;;;;;;;7.78;4.53;;;;;;;;;;4365485;32;20035;-80
2021/06/14 08:01:08;;;;;;;5.22;4.70;;;;;;;;;;4367033;32;20065;-79
2021/06/14 08:03:34;;;;;;;5.57;3.92;;;;;;;;;;4367280;32;20473;-80
2021/06/14 08:06:04;;;;;;;5.05;4.37;;;;;;;;;;4366296;32;20418;-79
2021/06/14 08:08:30;;;;;;;6.37;5.40;;;;;;;;;;4365847;32;20067;-79
2021/06/14 08:10:57;;;;;;;7.80;5.25;;;;;;;;;;4367033;32;20650;-79
2021/06/14 08:13:23;;;;;;;6.10;5.35;;;;;;;;;;4367390;32;20026;-80
2021/06/14 08:15:49;;;;;;;5.57;5.00;;;;;;;;;;4367373;32;20068;-79
2021/06/14 08:18:29;;;;;;;7.43;5.70;;;;;;;;;;4364411;32;20086;-80
2021/06/14 08:26:26;;;;;;;5.30;4.80;;;;;;;;;;4361569;32;20123;-79
2021/06/14 08:28:53;;;;;;;6.00;4.72;;;;;;;;;;4365708;32;20038;-78
2021/06/14 08:31:19;;;;;;;6.90;5.12;;;;;;;;;;4365462;32;20062;-78
2021/06/14 08:33:45;;;;;;;5.62;5.03;;;;;;;;;;4360259;32;20233;-78
2021/06/14 08:36:12;;;;;;;7.28;4.57;;;;;;;;;;4363453;32;20031;-78
2021/06/14 08:38:38;;;;;;;5.60;4.22;;;;;;;;;;4366523;32;20047;-78
2021/06/14 08:41:04;;;;;;;5.32;4.82;;;;;;;;;;4366302;32;20089;-78
2021/06/14 08:43:30;;;;;;;7.43;5.03;;;;;;;;;;4352362;32;20144;-78
2021/06/14 08:45:57;;;;;;;6.12;4.35;;;;;;;;;;4366640;32;20092;-78
2021/06/14 08:48:24;;;;;;;5.12;4.47;;;;;;;;;;4366640;32;20039;-78
2021/06/14 08:50:50;;;;;;;6.30;4.50;;;;;;;;;;4366042;32;20594;-78
2021/06/14 08:53:17;;;;;;;4.70;4.22;;;;;;;;;;4365133;32;20034;-78
2021/06/14 08:55:44;;;;;;;5.65;4.45;;;;;;;;;;4367697;32;20363;-78
2021/06/14 08:58:10;;;;;;;4.55;4.15;;;;;;;;;;4366137;32;20043;-78
2021/06/14 09:00:37;;;;;;;4.87;4.07;;;;;;;;;;4366315;32;20073;-78
2021/06/14 09:03:03;;;;;;;5.07;4.30;;;;;;;;;;4367214;32;20034;-78
2021/06/14 09:05:30;;;;;;;4.85;4.10;;;;;;;;;;4366425;32;20051;-78
2021/06/14 09:07:56;;;;;;;6.25;4.28;;;;;;;;;;4365502;32;20406;-78
2021/06/14 09:10:25;;;;;;;4.15;3.75;;;;;;;;;;4367188;32;20027;-78
2021/06/14 09:12:51;;;;;;;4.65;4.25;;;;;;;;;;4366230;32;20098;-78
2021/06/14 09:15:18;;;;;;;5.20;4.70;;;;;;;;;;4365135;32;20030;-78
2021/06/14 09:17:56;;;;;;;4.40;4.00;;;;;;;;;;4366812;32;20027;-78
2021/06/14 09:20:24;;;;;;;4.37;3.97;;;;;;;;;;4365581;32;20352;-78
2021/06/14 09:22:50;;;;;;;4.55;4.03;;;;;;;;;;4366124;32;20109;-78
2021/06/14 09:25:17;;;;;;;4.68;4.28;;;;;;;;;;4365544;32;20061;-78
2021/06/14 09:27:48;;;;;;;4.28;3.55;;;;;;;;;;4365619;32;20055;-78
2021/06/14 09:30:14;;;;;;;5.07;3.73;;;;;;;;;;4364240;32;20062;-78
2021/06/14 09:32:54;;;;;;;4.65;4.25;;;;;;;;;;4367333;32;20157;-78
2021/06/14 09:35:21;;;;;;;4.20;3.80;;;;;;;;;;4365457;32;20035;-78
2021/06/14 09:38:07;;;;;;;5.82;4.15;;;;;;;;;;4366004;32;20053;-78
2021/06/14 09:40:42;;;;;;;5.07;4.00;;;;;;;;;;4364205;32;20027;-78
2021/06/14 09:43:09;;;;;;;3.78;3.40;;;;;;;;;;4366623;32;20460;-78
2021/06/14 09:45:42;;;;;;;3.72;3.42;;;;;;;;;;4365074;32;20145;-78
2021/06/14 09:48:18;;;;;;;3.70;3.37;;;;;;;;;;4365026;32;20051;-78
2021/06/14 09:50:46;;;;;;;3.83;3.53;;;;;;;;;;4365161;32;20047;-78
2021/06/14 09:53:18;;;;;;;3.72;3.42;;;;;;;;;;4365824;32;20036;-78
2021/06/14 09:55:45;;;;;;;3.75;3.42;;;;;;;;;;4364587;32;20053;-78
2021/06/14 09:58:14;;;;;;;4.45;3.85;;;;;;;;;;4365412;32;20100;-79
2021/06/14 10:00:55;;;;;;;3.90;3.33;;;;;;;;;;4366362;32;20062;-78
2021/06/14 10:03:24;;;;;;;3.78;3.47;;;;;;;;;;4365018;32;20065;-78
2021/06/14 10:05:51;;;;;;;3.80;3.50;;;;;;;;;;4365690;32;20067;-78
2021/06/14 10:08:25;;;;;;;5.18;3.62;;;;;;;;;;4365569;32;20046;-78
2021/06/14 10:10:59;;;;;;;4.12;3.70;;;;;;;;;;4365643;32;20039;-78
2021/06/14 10:13:29;;;;;;;4.07;3.60;;;;;;;;;;4365656;32;20333;-78
2021/06/14 10:15:59;;;;;;;4.45;3.92;;;;;;;;;;4366680;32;20069;-78
2021/06/14 10:18:30;;;;;;;4.10;3.70;;;;;;;;;;4365510;32;20036;-78
2021/06/14 10:20:56;;;;;;;5.07;3.80;;;;;;;;;;4363270;32;20080;-78
2021/06/14 10:23:22;;;;;;;4.10;3.70;;;;;;;;;;4365174;32;20039;-78
2021/06/14 10:25:48;;;;;;;3.92;3.55;;;;;;;;;;4364776;32;20030;-78
2021/06/14 10:28:15;;;;;;;3.72;3.40;;;;;;;;;;4365477;32;20444;-79
2021/06/14 10:30:41;;;;;;;4.03;3.72;;;;;;;;;;4364004;32;20061;-78
2021/06/14 10:33:07;;;;;;;5.20;3.60;;;;;;;;;;4364459;32;20371;-79
2021/06/14 10:35:33;;;;;;;4.05;3.70;;;;;;;;;;4364728;32;20414;-78
2021/06/14 10:38:02;;;;;;;3.50;3.20;;;;;;;;;;4365340;32;20163;-79
2021/06/14 10:40:28;;;;;;;4.40;3.87;;;;;;;;;;4365427;32;20104;-78
2021/06/14 10:42:55;;;;;;;4.28;3.87;;;;;;;;;;4364105;32;20341;-79
2021/06/14 10:45:27;;;;;;;5.20;3.58;;;;;;;;;;4366295;32;20064;-79
2021/06/14 10:47:54;;;;;;;3.55;3.25;;;;;;;;;;4365005;32;20043;-78
2021/06/14 10:50:22;;;;;;;3.67;3.37;;;;;;;;;;4365814;32;20439;-78
2021/06/14 10:52:48;;;;;;;4.10;3.70;;;;;;;;;;4364046;32;20084;-78
2021/06/14 10:55:19;;;;;;;4.20;3.90;;;;;;;;;;4363793;32;20161;-78
2021/06/14 10:57:45;;;;;;;3.83;3.53;;;;;;;;;;4364238;32;20065;-78
2021/06/14 11:00:21;;;;;;;3.62;3.33;;;;;;;;;;4364714;32;20035;-79
2021/06/14 11:03:12;;;;;;;3.87;3.50;;;;;;;;;;4364048;32;20096;-78
2021/06/14 11:05:41;;;;;;;4.30;3.35;;;;;;;;;;4366174;32;20527;-78
2021/06/14 11:08:15;;;;;;;3.30;3.00;;;;;;;;;;4362744;32;20042;-78
2021/06/14 11:10:42;;;;;;;3.87;3.58;;;;;;;;;;4364500;32;20455;-78
2021/06/14 11:13:09;;;;;;;5.50;3.55;;;;;;;;;;4363981;32;20414;-79
2021/06/14 11:15:36;;;;;;;3.72;3.37;;;;;;;;;;4363250;32;20344;-79
2021/06/14 11:18:06;;;;;;;3.53;3.22;;;;;;;;;;4365091;32;20038;-79
2021/06/14 11:20:36;;;;;;;3.87;3.42;;;;;;;;;;4365039;32;20114;-78
2021/06/14 11:23:03;;;;;;;4.03;3.30;;;;;;;;;;4364166;32;20068;-79
2021/06/14 11:25:31;;;;;;;3.85;3.53;;;;;;;;;;4362907;32;20096;-78
2021/06/14 11:27:58;;;;;;;3.12;2.83;;;;;;;;;;4363961;32;20390;-78
2021/06/14 11:30:39;;;;;;;4.50;2.80;;;;;;;;;;4349576;32;20414;-78
2021/06/14 11:33:07;;;;;;;3.90;3.20;;;;;;;;;;4364553;32;20059;-78
2021/06/14 11:35:34;;;;;;;3.87;3.12;;;;;;;;;;4364277;32;20038;-79
2021/06/14 11:38:01;;;;;;;5.05;3.10;;;;;;;;;;4364340;32;20074;-78
2021/06/14 11:40:29;;;;;;;3.95;3.28;;;;;;;;;;4364146;32;20487;-78
2021/06/14 11:43:06;;;;;;;3.45;3.15;;;;;;;;;;4363254;32;20039;-79
2021/06/14 11:45:35;;;;;;;3.30;3.00;;;;;;;;;;4364559;32;20043;-78
2021/06/14 11:48:03;;;;;;;4.00;3.28;;;;;;;;;;4364844;32;20110;-78
2021/06/14 11:50:30;;;;;;;3.40;3.10;;;;;;;;;;4365094;32;20043;-78
2021/06/14 11:53:04;;;;;;;4.43;3.42;;;;;;;;;;4364660;32;20103;-78
2021/06/14 11:55:31;;;;;;;3.05;2.75;;;;;;;;;;4365366;32;20098;-79
2021/06/14 11:57:59;;;;;;;3.70;3.10;;;;;;;;;;4362759;32;20081;-79
2021/06/14 12:00:26;;;;;;;3.83;3.40;;;;;;;;;;4364085;32;20065;-79
2021/06/14 12:02:53;;;;;;;3.35;2.70;;;;;;;;;;4364354;32;20039;-79
2021/06/14 12:05:29;;;;;;;3.50;3.20;;;;;;;;;;4364468;32;20071;-78
2021/06/14 12:07:55;;;;;;;3.62;3.20;;;;;;;;;;4364118;32;20062;-78
2021/06/14 12:10:23;;;;;;;4.00;3.40;;;;;;;;;;4365596;32;20065;-79
2021/06/14 12:13:01;;;;;;;3.30;3.00;;;;;;;;;;4358580;32;20055;-79
2021/06/14 12:15:27;;;;;;;3.42;2.95;;;;;;;;;;4362831;32;20043;-79
2021/06/14 12:17:53;;;;;;;3.45;3.15;;;;;;;;;;4349993;32;20081;-77
2021/06/14 12:20:30;;;;;;;5.47;3.30;;;;;;;;;;4364188;32;20416;-79
2021/06/14 12:23:04;;;;;;;3.33;3.03;;;;;;;;;;4363235;32;20043;-80
2021/06/14 12:25:31;;;;;;;4.78;3.03;;;;;;;;;;4365289;32;20094;-80
2021/06/14 12:28:07;;;;;;;3.50;3.15;;;;;;;;;;4364868;32;20065;-80
2021/06/14 12:30:34;;;;;;;3.55;3.22;;;;;;;;;;4347347;33;20043;-80
2021/06/14 12:33:00;;;;;;;6.18;3.42;;;;;;;;;;4355460;32;20066;-78
2021/06/14 12:35:27;;;;;;;4.50;3.53;;;;;;;;;;4364995;32;20272;-78
2021/06/14 12:37:54;;;;;;;3.37;3.08;;;;;;;;;;4349730;32;20070;-78
2021/06/14 12:40:24;;;;;;;3.60;3.15;;;;;;;;;;4364040;32;20556;-78
2021/06/14 12:42:57;;;;;;;4.00;3.07;;;;;;;;;;4365360;32;20418;-78
2021/06/14 12:45:24;;;;;;;3.87;3.58;;;;;;;;;;4366522;32;20043;-79
2021/06/14 12:47:52;;;;;;;3.62;3.33;;;;;;;;;;4366949;32;20110;-78
2021/06/14 12:50:24;;;;;;;5.03;3.25;;;;;;;;;;4367440;32;20451;-78
2021/06/14 12:52:50;;;;;;;3.65;3.05;;;;;;;;;;4366651;32;20250;-78
2021/06/14 12:55:26;;;;;;;17.40;4.10;;;;;;;;;;4351420;32;20082;-78
2021/06/14 12:57:53;;;;;;;4.75;3.20;;;;;;;;;;4367173;32;20035;-78
2021/06/14 13:00:30;;;;;;;6.65;3.78;;;;;;;;;;4367417;32;20100;-78
2021/06/14 13:02:57;;;;;;;4.47;3.20;;;;;;;;;;4363629;32;20266;-78
2021/06/14 13:05:25;;;;;;;4.10;3.53;;;;;;;;;;4366695;32;20387;-78
2021/06/14 13:07:59;;;;;;;3.22;3.03;;;;;;;;;;4367176;32;20099;-78
2021/06/14 13:10:30;;;;;;;3.55;3.25;;;;;;;;;;4366090;32;20038;-78
2021/06/14 13:12:56;;;;;;;3.55;3.10;;;;;;;;;;4367227;32;20518;-78
2021/06/14 13:15:28;;;;;;;3.40;2.92;;;;;;;;;;4366938;32;20318;-79
2021/06/14 13:17:55;;;;;;;3.72;3.42;;;;;;;;;;4364584;32;20055;-79
2021/06/14 13:20:23;;;;;;;6.53;3.33;;;;;;;;;;4367362;32;20344;-79
2021/06/14 13:22:49;;;;;;;4.28;3.58;;;;;;;;;;4366439;32;20066;-79
2021/06/14 13:25:16;;;;;;;3.67;3.08;;;;;;;;;;4366720;32;20100;-79
2021/06/14 13:27:55;;;;;;;3.42;3.12;;;;;;;;;;4365179;32;20050;-79
2021/06/14 13:30:22;;;;;;;7.72;3.65;;;;;;;;;;4353873;32;20063;-78
2021/06/14 13:35:18;;;;;;;5.20;4.00;;;;;;;;;;4365207;32;20094;-78
2021/06/14 13:37:48;;;;;;;4.20;3.80;;;;;;;;;;4365716;32;20069;-78
2021/06/14 13:40:40;;;;;;;4.00;3.33;;;;;;;;;;4366466;32;20451;-78
2021/06/14 13:43:06;;;;;;;3.95;3.65;;;;;;;;;;4364088;32;20039;-78
2021/06/14 13:45:32;;;;;;;3.92;3.08;;;;;;;;;;4365840;32;20092;-78
2021/06/14 13:47:59;;;;;;;3.78;3.47;;;;;;;;;;4365972;32;20596;-78
2021/06/14 13:50:26;;;;;;;5.37;3.90;;;;;;;;;;4364859;32;20070;-79
2021/06/14 13:52:52;;;;;;;9.77;3.62;;;;;;;;;;4364361;32;20039;-78
2021/06/14 13:55:22;;;;;;;3.53;3.22;;;;;;;;;;4366168;32;20384;-79
2021/06/14 13:57:52;;;;;;;3.53;3.22;;;;;;;;;;4364213;32;20046;-79
2021/06/14 14:00:19;;;;;;;4.62;3.20;;;;;;;;;;4363975;32;20043;-79
2021/06/14 14:02:47;;;;;;;3.60;3.30;;;;;;;;;;4365510;32;20034;-79
2021/06/14 14:05:27;;;;;;;4.15;3.20;;;;;;;;;;4356453;32;20435;-78
2021/06/14 14:07:53;;;;;;;3.87;3.58;;;;;;;;;;4345050;32;20276;-79
2021/06/14 14:10:20;;;;;;;4.12;3.70;;;;;;;;;;4361839;32;20069;-79
2021/06/14 14:12:46;;;;;;;3.90;3.60;;;;;;;;;;4363912;32;20046;-79
2021/06/14 14:15:13;;;;;;;4.70;4.22;;;;;;;;;;4365150;32;20140;-80
2021/06/14 14:17:39;;;;;;;3.70;3.40;;;;;;;;;;4365296;32;20472;-79
2021/06/14 14:20:07;;;;;;;4.20;3.47;;;;;;;;;;4364254;32;20378;-79
2021/06/14 14:22:33;;;;;;;5.30;4.00;;;;;;;;;;4364196;32;20039;-79
2021/06/14 14:25:00;;;;;;;3.50;3.20;;;;;;;;;;4365951;32;20557;-78
2021/06/14 14:27:27;;;;;;;3.85;3.55;;;;;;;;;;4365675;32;20394;-79
2021/06/14 14:29:53;;;;;;;4.93;3.75;;;;;;;;;;4345387;32;20438;-78
2021/06/14 14:32:19;;;;;;;4.00;3.60;;;;;;;;;;4364717;32;20038;-78
2021/06/14 14:34:47;;;;;;;3.60;3.30;;;;;;;;;;4364896;32;20069;-79
2021/06/14 14:37:34;;;;;;;4.03;3.50;;;;;;;;;;4364992;32;20118;-79
2021/06/14 14:40:00;;;;;;;5.57;3.90;;;;;;;;;;4359413;32;20513;-79
2021/06/14 14:42:26;;;;;;;6.53;3.55;;;;;;;;;;4365086;32;20066;-79
2021/06/14 14:44:52;;;;;;;4.43;4.03;;;;;;;;;;4364449;32;20420;-79
2021/06/14 14:47:19;;;;;;;3.80;3.50;;;;;;;;;;4364641;32;20117;-79
2021/06/14 14:49:45;;;;;;;4.62;4.22;;;;;;;;;;4364395;32;20050;-79
2021/06/14 14:52:13;;;;;;;4.28;3.95;;;;;;;;;;4364502;32;20336;-79
2021/06/14 14:54:40;;;;;;;4.62;4.22;;;;;;;;;;4364593;32;20070;-79